sensor_id;sensor_type;location;lat;lon;timestamp;temperature;humidity
17891;DHT22;9071;48.220;14.480;2023-12-07T00:00:45;2.30;99.90
17891;DHT22;9071;48.220;14.480;2023-12-07T00:05:47;2.40;99.90
17891;DHT22;9071;48.220;14.480;2023-12-07T00:10:51;2.40;99.90
17891;DHT22;9071;48.220;14.480;2023-12-07T00:15:53;2.40;99.90
17891;DHT22;9071;48.220;14.480;2023-12-07T00:20:55;2.50;99.90
17891;DHT22;9071;48.220;14.480;2023-12-07T00:25:58;2.40;99.90
17891;DHT22;9071;48.220;14.480;2023-12-07T00:31:00;2.50;99.90
17891;DHT22;9071;48.220;14.480;2023-12-07T00:36:03;2.50;99.90
17891;DHT22;9071;48.220;14.480;2023-12-07T00:41:07;2.40;99.90
17891;DHT22;9071;48.220;14.480;2023-12-07T00:46:09;2.30;99.90
17891;DHT22;9071;48.220;14.480;2023-12-07T00:51:12;2.30;99.90
17891;DHT22;9071;48.220;14.480;2023-12-07T00:56:17;2.30;99.90
17891;DHT22;9071;48.220;14.480;2023-12-07T01:01:19;2.30;99.90
17891;DHT22;9071;48.220;14.480;2023-12-07T01:06:21;2.30;99.90
17891;DHT22;9071;48.220;14.480;2023-12-07T01:11:25;2.30;99.90
17891;DHT22;9071;48.220;14.480;2023-12-07T01:16:27;2.20;99.90
17891;DHT22;9071;48.220;14.480;2023-12-07T01:21:29;2.20;99.90
17891;DHT22;9071;48.220;14.480;2023-12-07T01:26:32;2.20;99.90
17891;DHT22;9071;48.220;14.480;2023-12-07T01:31:34;2.20;99.90
17891;DHT22;9071;48.220;14.480;2023-12-07T01:36:36;2.20;99.90
17891;DHT22;9071;48.220;14.480;2023-12-07T01:41:40;2.20;99.90
17891;DHT22;9071;48.220;14.480;2023-12-07T01:46:42;2.20;99.90
17891;DHT22;9071;48.220;14.480;2023-12-07T01:51:46;2.20;99.90
17891;DHT22;9071;48.220;14.480;2023-12-07T01:56:50;2.20;99.90
17891;DHT22;9071;48.220;14.480;2023-12-07T02:01:53;2.10;99.90
17891;DHT22;9071;48.220;14.480;2023-12-07T02:06:57;2.10;99.90
17891;DHT22;9071;48.220;14.480;2023-12-07T02:12:01;2.10;99.90
17891;DHT22;9071;48.220;14.480;2023-12-07T02:17:16;2.10;99.90
17891;DHT22;9071;48.220;14.480;2023-12-07T02:22:26;2.10;99.90
17891;DHT22;9071;48.220;14.480;2023-12-07T02:27:38;2.00;99.90
17891;DHT22;9071;48.220;14.480;2023-12-07T02:32:41;2.00;99.90
17891;DHT22;9071;48.220;14.480;2023-12-07T02:37:45;2.00;99.90
17891;DHT22;9071;48.220;14.480;2023-12-07T02:42:49;2.10;99.90
17891;DHT22;9071;48.220;14.480;2023-12-07T02:47:52;2.10;99.90
17891;DHT22;9071;48.220;14.480;2023-12-07T02:52:55;2.10;99.90
17891;DHT22;9071;48.220;14.480;2023-12-07T02:57:58;2.10;99.90
17891;DHT22;9071;48.220;14.480;2023-12-07T03:03:00;2.10;99.90
17891;DHT22;9071;48.220;14.480;2023-12-07T03:08:03;2.10;99.90
17891;DHT22;9071;48.220;14.480;2023-12-07T03:13:06;2.10;99.90
17891;DHT22;9071;48.220;14.480;2023-12-07T03:18:08;2.10;99.90
17891;DHT22;9071;48.220;14.480;2023-12-07T03:23:10;2.20;99.90
17891;DHT22;9071;48.220;14.480;2023-12-07T03:28:14;2.20;99.90
17891;DHT22;9071;48.220;14.480;2023-12-07T03:33:16;2.20;99.90
17891;DHT22;9071;48.220;14.480;2023-12-07T03:38:18;2.20;99.90
17891;DHT22;9071;48.220;14.480;2023-12-07T03:43:22;2.20;99.90
17891;DHT22;9071;48.220;14.480;2023-12-07T03:48:24;2.20;99.90
17891;DHT22;9071;48.220;14.480;2023-12-07T03:53:26;2.20;99.90
17891;DHT22;9071;48.220;14.480;2023-12-07T03:58:29;2.20;99.90
17891;DHT22;9071;48.220;14.480;2023-12-07T04:03:31;2.20;99.90
17891;DHT22;9071;48.220;14.480;2023-12-07T04:08:33;2.30;99.90
17891;DHT22;9071;48.220;14.480;2023-12-07T04:13:37;2.20;99.90
17891;DHT22;9071;48.220;14.480;2023-12-07T04:18:39;2.20;99.90
17891;DHT22;9071;48.220;14.480;2023-12-07T04:23:41;2.20;99.90
17891;DHT22;9071;48.220;14.480;2023-12-07T04:28:44;2.10;99.90
17891;DHT22;9071;48.220;14.480;2023-12-07T04:33:46;2.00;99.90
17891;DHT22;9071;48.220;14.480;2023-12-07T04:38:48;2.00;99.90
17891;DHT22;9071;48.220;14.480;2023-12-07T04:43:52;2.00;99.90
17891;DHT22;9071;48.220;14.480;2023-12-07T04:48:54;1.90;99.90
17891;DHT22;9071;48.220;14.480;2023-12-07T04:53:56;1.70;99.90
17891;DHT22;9071;48.220;14.480;2023-12-07T04:58:59;1.70;99.90
17891;DHT22;9071;48.220;14.480;2023-12-07T05:04:01;1.70;99.90
17891;DHT22;9071;48.220;14.480;2023-12-07T05:09:04;1.60;99.90
17891;DHT22;9071;48.220;14.480;2023-12-07T05:14:11;1.60;99.90
17891;DHT22;9071;48.220;14.480;2023-12-07T05:19:13;1.60;99.90
17891;DHT22;9071;48.220;14.480;2023-12-07T05:24:15;1.60;99.90
17891;DHT22;9071;48.220;14.480;2023-12-07T05:29:19;1.60;99.90
17891;DHT22;9071;48.220;14.480;2023-12-07T05:34:21;1.70;99.90
17891;DHT22;9071;48.220;14.480;2023-12-07T05:39:23;1.80;99.90
17891;DHT22;9071;48.220;14.480;2023-12-07T05:44:27;1.80;99.90
17891;DHT22;9071;48.220;14.480;2023-12-07T05:49:30;1.90;99.90
17891;DHT22;9071;48.220;14.480;2023-12-07T05:54:33;1.90;99.90
17891;DHT22;9071;48.220;14.480;2023-12-07T05:59:38;1.90;99.90
17891;DHT22;9071;48.220;14.480;2023-12-07T06:04:40;1.90;99.90
17891;DHT22;9071;48.220;14.480;2023-12-07T06:09:43;1.90;99.90
17891;DHT22;9071;48.220;14.480;2023-12-07T06:14:46;1.90;99.90
17891;DHT22;9071;48.220;14.480;2023-12-07T06:19:48;2.00;99.90
17891;DHT22;9071;48.220;14.480;2023-12-07T06:24:50;2.10;99.90
17891;DHT22;9071;48.220;14.480;2023-12-07T06:29:54;2.10;99.90
17891;DHT22;9071;48.220;14.480;2023-12-07T06:34:56;2.10;99.90
17891;DHT22;9071;48.220;14.480;2023-12-07T06:39:58;2.10;99.90
17891;DHT22;9071;48.220;14.480;2023-12-07T06:45:02;2.20;99.90
17891;DHT22;9071;48.220;14.480;2023-12-07T06:50:05;2.10;99.90
17891;DHT22;9071;48.220;14.480;2023-12-07T06:55:09;2.10;99.90
17891;DHT22;9071;48.220;14.480;2023-12-07T07:00:13;2.10;99.90
17891;DHT22;9071;48.220;14.480;2023-12-07T07:05:16;2.20;99.90
17891;DHT22;9071;48.220;14.480;2023-12-07T07:10:18;2.20;99.90
17891;DHT22;9071;48.220;14.480;2023-12-07T07:15:21;2.10;99.90
17891;DHT22;9071;48.220;14.480;2023-12-07T07:20:26;2.10;99.90
17891;DHT22;9071;48.220;14.480;2023-12-07T07:25:28;2.20;99.90
17891;DHT22;9071;48.220;14.480;2023-12-07T07:30:31;2.30;99.90
17891;DHT22;9071;48.220;14.480;2023-12-07T07:35:33;2.30;99.90
17891;DHT22;9071;48.220;14.480;2023-12-07T07:40:36;2.30;99.90
17891;DHT22;9071;48.220;14.480;2023-12-07T07:45:39;2.40;99.90
17891;DHT22;9071;48.220;14.480;2023-12-07T07:50:41;2.40;99.90
17891;DHT22;9071;48.220;14.480;2023-12-07T07:55:43;2.50;99.90
17891;DHT22;9071;48.220;14.480;2023-12-07T08:00:47;2.50;99.90
17891;DHT22;9071;48.220;14.480;2023-12-07T08:05:49;2.50;99.90
17891;DHT22;9071;48.220;14.480;2023-12-07T08:10:51;2.50;99.90
17891;DHT22;9071;48.220;14.480;2023-12-07T08:15:54;2.60;99.90
17891;DHT22;9071;48.220;14.480;2023-12-07T08:20:57;2.70;99.90
17891;DHT22;9071;48.220;14.480;2023-12-07T08:25:59;2.70;99.90
17891;DHT22;9071;48.220;14.480;2023-12-07T08:31:03;2.70;99.90
17891;DHT22;9071;48.220;14.480;2023-12-07T08:36:06;2.80;99.90
17891;DHT22;9071;48.220;14.480;2023-12-07T08:41:09;2.90;99.90
17891;DHT22;9071;48.220;14.480;2023-12-07T08:46:12;2.90;99.90
17891;DHT22;9071;48.220;14.480;2023-12-07T08:51:14;3.00;99.90
17891;DHT22;9071;48.220;14.480;2023-12-07T08:56:16;3.10;99.90
17891;DHT22;9071;48.220;14.480;2023-12-07T09:01:19;3.10;99.90
17891;DHT22;9071;48.220;14.480;2023-12-07T09:06:22;3.20;99.90
17891;DHT22;9071;48.220;14.480;2023-12-07T09:11:24;3.20;99.90
17891;DHT22;9071;48.220;14.480;2023-12-07T09:16:27;3.30;99.90
17891;DHT22;9071;48.220;14.480;2023-12-07T09:21:29;3.30;99.90
17891;DHT22;9071;48.220;14.480;2023-12-07T09:26:31;3.40;99.90
17891;DHT22;9071;48.220;14.480;2023-12-07T09:31:35;3.40;99.90
17891;DHT22;9071;48.220;14.480;2023-12-07T09:36:37;3.50;99.90
17891;DHT22;9071;48.220;14.480;2023-12-07T09:41:39;3.50;99.90
17891;DHT22;9071;48.220;14.480;2023-12-07T09:46:44;3.50;99.90
17891;DHT22;9071;48.220;14.480;2023-12-07T09:51:46;3.60;99.90
17891;DHT22;9071;48.220;14.480;2023-12-07T09:56:49;3.60;99.90
17891;DHT22;9071;48.220;14.480;2023-12-07T10:01:55;3.70;99.90
17891;DHT22;9071;48.220;14.480;2023-12-07T10:06:57;3.70;99.90
17891;DHT22;9071;48.220;14.480;2023-12-07T10:12:03;3.80;99.90
17891;DHT22;9071;48.220;14.480;2023-12-07T10:17:06;3.90;99.90
17891;DHT22;9071;48.220;14.480;2023-12-07T10:22:13;3.80;99.90
17891;DHT22;9071;48.220;14.480;2023-12-07T10:27:15;3.80;99.90
17891;DHT22;9071;48.220;14.480;2023-12-07T10:32:19;3.80;99.90
17891;DHT22;9071;48.220;14.480;2023-12-07T10:37:23;3.80;99.90
17891;DHT22;9071;48.220;14.480;2023-12-07T10:42:26;3.80;99.90
17891;DHT22;9071;48.220;14.480;2023-12-07T10:47:34;3.80;99.90
17891;DHT22;9071;48.220;14.480;2023-12-07T10:52:39;3.80;99.90
17891;DHT22;9071;48.220;14.480;2023-12-07T10:57:44;3.80;99.90
17891;DHT22;9071;48.220;14.480;2023-12-07T11:02:49;3.70;99.90
17891;DHT22;9071;48.220;14.480;2023-12-07T11:07:54;3.80;99.90
17891;DHT22;9071;48.220;14.480;2023-12-07T11:13:11;3.90;99.90
17891;DHT22;9071;48.220;14.480;2023-12-07T11:18:17;4.00;99.90
17891;DHT22;9071;48.220;14.480;2023-12-07T11:23:20;4.10;99.90
17891;DHT22;9071;48.220;14.480;2023-12-07T11:28:35;4.20;99.90
17891;DHT22;9071;48.220;14.480;2023-12-07T11:33:39;4.20;99.90
17891;DHT22;9071;48.220;14.480;2023-12-07T11:44:17;4.20;99.90
17891;DHT22;9071;48.220;14.480;2023-12-07T11:49:21;4.30;99.90
17891;DHT22;9071;48.220;14.480;2023-12-07T11:54:24;4.40;99.90
17891;DHT22;9071;48.220;14.480;2023-12-07T11:59:26;4.40;99.90
17891;DHT22;9071;48.220;14.480;2023-12-07T12:04:30;4.30;99.90
17891;DHT22;9071;48.220;14.480;2023-12-07T12:09:32;4.30;99.90
17891;DHT22;9071;48.220;14.480;2023-12-07T12:14:35;4.40;99.90
17891;DHT22;9071;48.220;14.480;2023-12-07T12:19:39;4.40;99.90
17891;DHT22;9071;48.220;14.480;2023-12-07T12:24:41;4.50;99.90
17891;DHT22;9071;48.220;14.480;2023-12-07T12:29:43;4.60;99.90
17891;DHT22;9071;48.220;14.480;2023-12-07T12:34:52;4.80;99.90
17891;DHT22;9071;48.220;14.480;2023-12-07T12:39:54;5.00;99.90
17891;DHT22;9071;48.220;14.480;2023-12-07T12:44:57;5.60;99.90
17891;DHT22;9071;48.220;14.480;2023-12-07T12:50:00;6.30;99.90
17891;DHT22;9071;48.220;14.480;2023-12-07T12:55:08;6.70;99.90
17891;DHT22;9071;48.220;14.480;2023-12-07T13:00:13;6.60;99.90
17891;DHT22;9071;48.220;14.480;2023-12-07T13:05:16;6.50;99.90
17891;DHT22;9071;48.220;14.480;2023-12-07T13:10:18;6.30;99.90
17891;DHT22;9071;48.220;14.480;2023-12-07T13:15:21;6.00;99.90
17891;DHT22;9071;48.220;14.480;2023-12-07T13:20:25;5.80;99.90
17891;DHT22;9071;48.220;14.480;2023-12-07T13:25:27;5.50;99.90
17891;DHT22;9071;48.220;14.480;2023-12-07T13:30:29;5.40;99.90
17891;DHT22;9071;48.220;14.480;2023-12-07T13:35:35;5.30;99.90
17891;DHT22;9071;48.220;14.480;2023-12-07T13:40:37;5.10;99.90
17891;DHT22;9071;48.220;14.480;2023-12-07T13:45:39;4.80;99.90
17891;DHT22;9071;48.220;14.480;2023-12-07T13:50:44;4.70;99.90
17891;DHT22;9071;48.220;14.480;2023-12-07T13:55:46;4.60;99.90
17891;DHT22;9071;48.220;14.480;2023-12-07T14:00:48;4.50;99.90
17891;DHT22;9071;48.220;14.480;2023-12-07T14:05:52;4.30;99.90
17891;DHT22;9071;48.220;14.480;2023-12-07T14:10:54;4.10;99.90
17891;DHT22;9071;48.220;14.480;2023-12-07T14:15:56;3.90;99.90
17891;DHT22;9071;48.220;14.480;2023-12-07T14:20:59;3.80;99.90
17891;DHT22;9071;48.220;14.480;2023-12-07T14:26:01;3.50;99.90
17891;DHT22;9071;48.220;14.480;2023-12-07T14:31:03;3.30;99.90
17891;DHT22;9071;48.220;14.480;2023-12-07T14:36:10;3.10;99.90
17891;DHT22;9071;48.220;14.480;2023-12-07T14:41:15;2.90;99.90
17891;DHT22;9071;48.220;14.480;2023-12-07T14:46:18;2.70;99.90
17891;DHT22;9071;48.220;14.480;2023-12-07T14:51:21;2.50;99.90
17891;DHT22;9071;48.220;14.480;2023-12-07T14:56:24;2.30;99.90
17891;DHT22;9071;48.220;14.480;2023-12-07T15:01:26;2.00;99.90
17891;DHT22;9071;48.220;14.480;2023-12-07T15:06:30;1.80;99.90
17891;DHT22;9071;48.220;14.480;2023-12-07T15:11:35;1.60;99.90
17891;DHT22;9071;48.220;14.480;2023-12-07T15:16:37;1.30;99.90
17891;DHT22;9071;48.220;14.480;2023-12-07T15:21:40;1.10;99.90
17891;DHT22;9071;48.220;14.480;2023-12-07T15:26:43;0.90;99.90
17891;DHT22;9071;48.220;14.480;2023-12-07T15:31:45;1.00;99.90
17891;DHT22;9071;48.220;14.480;2023-12-07T15:36:48;0.70;99.90
17891;DHT22;9071;48.220;14.480;2023-12-07T15:41:50;0.50;99.90
17891;DHT22;9071;48.220;14.480;2023-12-07T15:46:52;0.30;99.90
17891;DHT22;9071;48.220;14.480;2023-12-07T15:51:56;0.10;99.90
17891;DHT22;9071;48.220;14.480;2023-12-07T15:56:58;0.00;99.90
17891;DHT22;9071;48.220;14.480;2023-12-07T16:02:00;-0.10;99.90
17891;DHT22;9071;48.220;14.480;2023-12-07T16:07:05;-0.30;99.90
17891;DHT22;9071;48.220;14.480;2023-12-07T16:12:07;-0.30;99.90
17891;DHT22;9071;48.220;14.480;2023-12-07T16:17:10;-0.30;99.90
17891;DHT22;9071;48.220;14.480;2023-12-07T16:22:14;-0.30;99.90
17891;DHT22;9071;48.220;14.480;2023-12-07T16:27:16;-0.30;99.90
17891;DHT22;9071;48.220;14.480;2023-12-07T16:32:18;-0.50;99.90
17891;DHT22;9071;48.220;14.480;2023-12-07T16:37:22;-0.50;99.90
17891;DHT22;9071;48.220;14.480;2023-12-07T16:42:26;-0.60;99.90
17891;DHT22;9071;48.220;14.480;2023-12-07T16:47:28;-0.50;99.90
17891;DHT22;9071;48.220;14.480;2023-12-07T16:52:31;-0.70;99.90
17891;DHT22;9071;48.220;14.480;2023-12-07T16:57:34;-0.80;99.90
17891;DHT22;9071;48.220;14.480;2023-12-07T17:02:36;-0.80;99.90
17891;DHT22;9071;48.220;14.480;2023-12-07T17:07:40;-0.80;99.90
17891;DHT22;9071;48.220;14.480;2023-12-07T17:12:42;-1.00;99.90
17891;DHT22;9071;48.220;14.480;2023-12-07T17:17:44;-1.00;99.90
17891;DHT22;9071;48.220;14.480;2023-12-07T17:22:48;-1.10;99.90
17891;DHT22;9071;48.220;14.480;2023-12-07T17:27:51;-1.10;99.90
17891;DHT22;9071;48.220;14.480;2023-12-07T17:32:53;-1.10;99.90
17891;DHT22;9071;48.220;14.480;2023-12-07T17:37:56;-1.20;99.90
17891;DHT22;9071;48.220;14.480;2023-12-07T17:42:59;-1.40;99.90
17891;DHT22;9071;48.220;14.480;2023-12-07T17:48:01;-1.50;99.90
17891;DHT22;9071;48.220;14.480;2023-12-07T17:53:05;-1.60;99.90
17891;DHT22;9071;48.220;14.480;2023-12-07T17:58:07;-1.60;99.90
17891;DHT22;9071;48.220;14.480;2023-12-07T18:03:09;-1.60;99.90
17891;DHT22;9071;48.220;14.480;2023-12-07T18:08:13;-1.70;99.90
17891;DHT22;9071;48.220;14.480;2023-12-07T18:13:14;-1.70;99.90
17891;DHT22;9071;48.220;14.480;2023-12-07T18:18:17;-1.50;99.90
17891;DHT22;9071;48.220;14.480;2023-12-07T18:23:20;-1.50;99.90
17891;DHT22;9071;48.220;14.480;2023-12-07T18:28:22;-1.50;99.90
17891;DHT22;9071;48.220;14.480;2023-12-07T18:33:24;-1.50;99.90
17891;DHT22;9071;48.220;14.480;2023-12-07T18:38:28;-1.50;99.90
17891;DHT22;9071;48.220;14.480;2023-12-07T18:43:30;-1.50;99.90
17891;DHT22;9071;48.220;14.480;2023-12-07T18:48:32;-1.30;99.90
17891;DHT22;9071;48.220;14.480;2023-12-07T18:53:35;-1.20;99.90
17891;DHT22;9071;48.220;14.480;2023-12-07T18:58:37;-1.30;99.90
17891;DHT22;9071;48.220;14.480;2023-12-07T19:03:39;-1.40;99.90
17891;DHT22;9071;48.220;14.480;2023-12-07T19:08:45;-1.40;99.90
17891;DHT22;9071;48.220;14.480;2023-12-07T19:13:47;-1.50;99.90
17891;DHT22;9071;48.220;14.480;2023-12-07T19:18:49;-1.40;99.90
17891;DHT22;9071;48.220;14.480;2023-12-07T19:23:53;-1.30;99.90
17891;DHT22;9071;48.220;14.480;2023-12-07T19:28:55;-1.30;99.90
17891;DHT22;9071;48.220;14.480;2023-12-07T19:33:59;-1.30;99.90
17891;DHT22;9071;48.220;14.480;2023-12-07T19:39:03;-1.40;99.90
17891;DHT22;9071;48.220;14.480;2023-12-07T19:44:05;-1.30;99.90
17891;DHT22;9071;48.220;14.480;2023-12-07T19:49:07;-1.30;99.90
17891;DHT22;9071;48.220;14.480;2023-12-07T19:54:11;-1.30;99.90
17891;DHT22;9071;48.220;14.480;2023-12-07T19:59:13;-1.40;99.90
17891;DHT22;9071;48.220;14.480;2023-12-07T20:04:15;-1.40;99.90
17891;DHT22;9071;48.220;14.480;2023-12-07T20:09:18;-1.50;99.90
17891;DHT22;9071;48.220;14.480;2023-12-07T20:14:20;-1.50;99.90
17891;DHT22;9071;48.220;14.480;2023-12-07T20:19:22;-1.60;99.90
17891;DHT22;9071;48.220;14.480;2023-12-07T20:24:26;-1.80;99.90
17891;DHT22;9071;48.220;14.480;2023-12-07T20:29:28;-2.00;99.90
17891;DHT22;9071;48.220;14.480;2023-12-07T20:34:30;-2.30;99.90
17891;DHT22;9071;48.220;14.480;2023-12-07T20:39:33;-2.40;99.90
17891;DHT22;9071;48.220;14.480;2023-12-07T20:44:35;-2.50;99.90
17891;DHT22;9071;48.220;14.480;2023-12-07T20:49:37;-2.50;99.90
17891;DHT22;9071;48.220;14.480;2023-12-07T20:54:41;-2.60;99.90
17891;DHT22;9071;48.220;14.480;2023-12-07T20:59:43;-2.60;99.90
17891;DHT22;9071;48.220;14.480;2023-12-07T21:04:45;-2.60;99.90
17891;DHT22;9071;48.220;14.480;2023-12-07T21:09:48;-2.60;99.90
17891;DHT22;9071;48.220;14.480;2023-12-07T21:14:50;-2.60;99.90
17891;DHT22;9071;48.220;14.480;2023-12-07T21:19:52;-2.60;99.90
17891;DHT22;9071;48.220;14.480;2023-12-07T21:24:56;-2.70;99.90
17891;DHT22;9071;48.220;14.480;2023-12-07T21:29:58;-2.80;99.90
17891;DHT22;9071;48.220;14.480;2023-12-07T21:35:00;-2.90;99.90
17891;DHT22;9071;48.220;14.480;2023-12-07T21:40:05;-2.90;99.90
17891;DHT22;9071;48.220;14.480;2023-12-07T21:45:07;-2.80;99.90
17891;DHT22;9071;48.220;14.480;2023-12-07T21:50:09;-2.80;99.90
17891;DHT22;9071;48.220;14.480;2023-12-07T21:55:13;-2.70;99.90
17891;DHT22;9071;48.220;14.480;2023-12-07T22:00:15;-2.70;99.90
17891;DHT22;9071;48.220;14.480;2023-12-07T22:05:18;-2.70;99.90
17891;DHT22;9071;48.220;14.480;2023-12-07T22:10:22;-2.70;99.90
17891;DHT22;9071;48.220;14.480;2023-12-07T22:15:24;-2.90;99.90
17891;DHT22;9071;48.220;14.480;2023-12-07T22:20:26;-2.80;99.90
17891;DHT22;9071;48.220;14.480;2023-12-07T22:25:30;-2.80;99.90
17891;DHT22;9071;48.220;14.480;2023-12-07T22:30:32;-2.70;99.90
17891;DHT22;9071;48.220;14.480;2023-12-07T22:35:34;-2.80;99.90
17891;DHT22;9071;48.220;14.480;2023-12-07T22:40:38;-2.80;99.90
17891;DHT22;9071;48.220;14.480;2023-12-07T22:45:40;-2.80;99.90
17891;DHT22;9071;48.220;14.480;2023-12-07T22:50:42;-2.80;99.90
17891;DHT22;9071;48.220;14.480;2023-12-07T22:55:45;-2.80;99.90
17891;DHT22;9071;48.220;14.480;2023-12-07T23:00:47;-2.80;99.90
17891;DHT22;9071;48.220;14.480;2023-12-07T23:05:49;-2.70;99.90
17891;DHT22;9071;48.220;14.480;2023-12-07T23:10:53;-2.70;99.90
17891;DHT22;9071;48.220;14.480;2023-12-07T23:15:55;-2.60;99.90
17891;DHT22;9071;48.220;14.480;2023-12-07T23:20:57;-2.50;99.90
17891;DHT22;9071;48.220;14.480;2023-12-07T23:26:00;-2.40;99.90
17891;DHT22;9071;48.220;14.480;2023-12-07T23:31:02;-2.30;99.90
17891;DHT22;9071;48.220;14.480;2023-12-07T23:36:05;-2.10;99.90
17891;DHT22;9071;48.220;14.480;2023-12-07T23:41:09;-2.00;99.90
17891;DHT22;9071;48.220;14.480;2023-12-07T23:46:11;-2.00;99.90
17891;DHT22;9071;48.220;14.480;2023-12-07T23:51:13;-1.90;99.90
17891;DHT22;9071;48.220;14.480;2023-12-07T23:56:19;-1.80;99.90
